sensor_id;sensor_type;location;lat;lon;timestamp;P1;durP1;ratioP1;P2;durP2;ratioP2
3841;SDS011;1936;47.074;15.336;2023-04-01T00:00:04;3.67;;;3.38;;
3841;SDS011;1936;47.074;15.336;2023-04-01T00:02:08;3.28;;;2.97;;
3841;SDS011;1936;47.074;15.336;2023-04-01T00:04:12;5.00;;;3.40;;
3841;SDS011;1936;47.074;15.336;2023-04-01T00:06:17;5.50;;;3.33;;
3841;SDS011;1936;47.074;15.336;2023-04-01T00:08:21;5.53;;;2.90;;
3841;SDS011;1936;47.074;15.336;2023-04-01T00:10:25;2.92;;;2.55;;
3841;SDS011;1936;47.074;15.336;2023-04-01T00:12:29;3.40;;;2.88;;
3841;SDS011;1936;47.074;15.336;2023-04-01T00:14:34;6.30;;;3.47;;
3841;SDS011;1936;47.074;15.336;2023-04-01T00:16:41;4.10;;;3.58;;
3841;SDS011;1936;47.074;15.336;2023-04-01T00:18:44;4.20;;;3.70;;
3841;SDS011;1936;47.074;15.336;2023-04-01T00:20:49;3.60;;;3.30;;
3841;SDS011;1936;47.074;15.336;2023-04-01T00:22:53;3.22;;;2.55;;
3841;SDS011;1936;47.074;15.336;2023-04-01T00:24:57;4.75;;;3.60;;
3841;SDS011;1936;47.074;15.336;2023-04-01T00:27:01;3.85;;;3.10;;
3841;SDS011;1936;47.074;15.336;2023-04-01T00:29:05;4.25;;;3.58;;
3841;SDS011;1936;47.074;15.336;2023-04-01T00:31:10;4.97;;;2.95;;
3841;SDS011;1936;47.074;15.336;2023-04-01T00:33:14;3.00;;;2.78;;
3841;SDS011;1936;47.074;15.336;2023-04-01T00:35:19;4.22;;;3.20;;
3841;SDS011;1936;47.074;15.336;2023-04-01T00:37:22;3.92;;;3.47;;
3841;SDS011;1936;47.074;15.336;2023-04-01T00:39:28;3.55;;;3.25;;
3841;SDS011;1936;47.074;15.336;2023-04-01T00:41:32;3.70;;;2.75;;
3841;SDS011;1936;47.074;15.336;2023-04-01T00:43:35;4.55;;;3.30;;
3841;SDS011;1936;47.074;15.336;2023-04-01T00:45:40;4.05;;;3.10;;
3841;SDS011;1936;47.074;15.336;2023-04-01T00:47:45;3.45;;;2.72;;
3841;SDS011;1936;47.074;15.336;2023-04-01T00:49:49;3.20;;;2.88;;
3841;SDS011;1936;47.074;15.336;2023-04-01T00:51:54;5.80;;;3.03;;
3841;SDS011;1936;47.074;15.336;2023-04-01T00:53:59;3.67;;;2.90;;
3841;SDS011;1936;47.074;15.336;2023-04-01T00:56:05;3.65;;;2.90;;
3841;SDS011;1936;47.074;15.336;2023-04-01T00:58:11;2.53;;;2.33;;
3841;SDS011;1936;47.074;15.336;2023-04-01T01:00:16;3.38;;;2.60;;
3841;SDS011;1936;47.074;15.336;2023-04-01T01:02:20;3.65;;;2.35;;
3841;SDS011;1936;47.074;15.336;2023-04-01T01:04:26;3.05;;;2.75;;
3841;SDS011;1936;47.074;15.336;2023-04-01T01:06:35;3.72;;;3.33;;
3841;SDS011;1936;47.074;15.336;2023-04-01T01:08:47;4.28;;;2.63;;
3841;SDS011;1936;47.074;15.336;2023-04-01T01:10:53;3.22;;;2.92;;
3841;SDS011;1936;47.074;15.336;2023-04-01T01:12:58;2.78;;;2.50;;
3841;SDS011;1936;47.074;15.336;2023-04-01T01:15:06;3.88;;;2.85;;
3841;SDS011;1936;47.074;15.336;2023-04-01T01:17:13;2.58;;;2.22;;
3841;SDS011;1936;47.074;15.336;2023-04-01T01:19:24;3.08;;;2.83;;
3841;SDS011;1936;47.074;15.336;2023-04-01T01:21:36;4.90;;;3.05;;
3841;SDS011;1936;47.074;15.336;2023-04-01T01:26:14;4.57;;;2.50;;
3841;SDS011;1936;47.074;15.336;2023-04-01T01:28:27;4.00;;;3.30;;
3841;SDS011;1936;47.074;15.336;2023-04-01T01:30:38;3.92;;;3.35;;
3841;SDS011;1936;47.074;15.336;2023-04-01T01:35:19;3.25;;;2.95;;
3841;SDS011;1936;47.074;15.336;2023-04-01T01:37:23;4.20;;;2.80;;
3841;SDS011;1936;47.074;15.336;2023-04-01T01:39:30;3.00;;;2.70;;
3841;SDS011;1936;47.074;15.336;2023-04-01T01:41:34;3.70;;;3.17;;
3841;SDS011;1936;47.074;15.336;2023-04-01T01:43:40;3.67;;;3.38;;
3841;SDS011;1936;47.074;15.336;2023-04-01T01:45:46;3.90;;;3.08;;
3841;SDS011;1936;47.074;15.336;2023-04-01T01:47:50;3.42;;;2.53;;
3841;SDS011;1936;47.074;15.336;2023-04-01T01:49:54;3.53;;;2.40;;
3841;SDS011;1936;47.074;15.336;2023-04-01T01:52:00;3.97;;;3.20;;
3841;SDS011;1936;47.074;15.336;2023-04-01T01:54:05;3.00;;;2.78;;
3841;SDS011;1936;47.074;15.336;2023-04-01T01:56:09;3.40;;;2.80;;
3841;SDS011;1936;47.074;15.336;2023-04-01T01:58:15;2.30;;;2.10;;
3841;SDS011;1936;47.074;15.336;2023-04-01T02:00:19;2.83;;;2.50;;
3841;SDS011;1936;47.074;15.336;2023-04-01T02:02:24;2.25;;;2.15;;
3841;SDS011;1936;47.074;15.336;2023-04-01T02:04:32;4.45;;;2.22;;
3841;SDS011;1936;47.074;15.336;2023-04-01T02:06:37;3.47;;;2.65;;
3841;SDS011;1936;47.074;15.336;2023-04-01T02:08:43;2.60;;;2.33;;
3841;SDS011;1936;47.074;15.336;2023-04-01T02:10:49;7.78;;;3.30;;
3841;SDS011;1936;47.074;15.336;2023-04-01T02:12:56;10.85;;;2.90;;
3841;SDS011;1936;47.074;15.336;2023-04-01T02:15:03;3.45;;;3.13;;
3841;SDS011;1936;47.074;15.336;2023-04-01T02:17:08;4.97;;;3.83;;
3841;SDS011;1936;47.074;15.336;2023-04-01T02:19:13;2.88;;;2.63;;
3841;SDS011;1936;47.074;15.336;2023-04-01T02:21:17;5.63;;;2.67;;
3841;SDS011;1936;47.074;15.336;2023-04-01T02:23:21;2.97;;;2.33;;
3841;SDS011;1936;47.074;15.336;2023-04-01T02:25:27;2.95;;;2.65;;
3841;SDS011;1936;47.074;15.336;2023-04-01T02:27:32;2.30;;;2.10;;
3841;SDS011;1936;47.074;15.336;2023-04-01T02:29:36;2.40;;;2.20;;
3841;SDS011;1936;47.074;15.336;2023-04-01T02:31:39;3.83;;;2.33;;
3841;SDS011;1936;47.074;15.336;2023-04-01T02:33:43;4.47;;;2.45;;
3841;SDS011;1936;47.074;15.336;2023-04-01T02:35:48;2.65;;;1.88;;
3841;SDS011;1936;47.074;15.336;2023-04-01T02:37:52;6.13;;;1.90;;
3841;SDS011;1936;47.074;15.336;2023-04-01T02:39:58;2.60;;;1.90;;
3841;SDS011;1936;47.074;15.336;2023-04-01T02:42:04;5.35;;;1.80;;
3841;SDS011;1936;47.074;15.336;2023-04-01T02:44:08;2.40;;;1.92;;
3841;SDS011;1936;47.074;15.336;2023-04-01T02:46:12;2.70;;;1.50;;
3841;SDS011;1936;47.074;15.336;2023-04-01T02:48:16;2.00;;;1.63;;
3841;SDS011;1936;47.074;15.336;2023-04-01T02:50:19;1.98;;;1.60;;
3841;SDS011;1936;47.074;15.336;2023-04-01T02:52:23;2.85;;;2.40;;
3841;SDS011;1936;47.074;15.336;2023-04-01T02:54:26;1.67;;;1.48;;
3841;SDS011;1936;47.074;15.336;2023-04-01T02:56:30;1.95;;;1.58;;
3841;SDS011;1936;47.074;15.336;2023-04-01T02:58:35;2.08;;;1.88;;
3841;SDS011;1936;47.074;15.336;2023-04-01T03:00:39;2.30;;;1.60;;
3841;SDS011;1936;47.074;15.336;2023-04-01T03:02:42;1.80;;;1.52;;
3841;SDS011;1936;47.074;15.336;2023-04-01T03:04:46;3.38;;;2.25;;
3841;SDS011;1936;47.074;15.336;2023-04-01T03:06:50;2.42;;;2.10;;
3841;SDS011;1936;47.074;15.336;2023-04-01T03:08:53;2.90;;;2.05;;
3841;SDS011;1936;47.074;15.336;2023-04-01T03:10:57;5.05;;;1.75;;
3841;SDS011;1936;47.074;15.336;2023-04-01T03:13:01;2.45;;;1.95;;
3841;SDS011;1936;47.074;15.336;2023-04-01T03:15:08;4.28;;;1.85;;
3841;SDS011;1936;47.074;15.336;2023-04-01T03:17:12;3.15;;;2.15;;
3841;SDS011;1936;47.074;15.336;2023-04-01T03:19:16;6.45;;;2.42;;
3841;SDS011;1936;47.074;15.336;2023-04-01T03:21:20;2.80;;;1.85;;
3841;SDS011;1936;47.074;15.336;2023-04-01T03:23:24;2.13;;;1.80;;
3841;SDS011;1936;47.074;15.336;2023-04-01T03:25:28;2.85;;;2.08;;
3841;SDS011;1936;47.074;15.336;2023-04-01T03:27:32;1.30;;;1.20;;
3841;SDS011;1936;47.074;15.336;2023-04-01T03:29:36;3.65;;;2.28;;
3841;SDS011;1936;47.074;15.336;2023-04-01T03:31:42;2.45;;;2.20;;
3841;SDS011;1936;47.074;15.336;2023-04-01T03:33:45;2.35;;;1.77;;
3841;SDS011;1936;47.074;15.336;2023-04-01T03:35:49;8.55;;;2.00;;
3841;SDS011;1936;47.074;15.336;2023-04-01T03:37:53;3.15;;;1.90;;
3841;SDS011;1936;47.074;15.336;2023-04-01T03:39:57;3.55;;;2.03;;
3841;SDS011;1936;47.074;15.336;2023-04-01T03:42:01;5.00;;;2.10;;
3841;SDS011;1936;47.074;15.336;2023-04-01T03:44:05;2.83;;;2.35;;
3841;SDS011;1936;47.074;15.336;2023-04-01T03:46:09;3.10;;;2.40;;
3841;SDS011;1936;47.074;15.336;2023-04-01T03:48:14;2.65;;;1.88;;
3841;SDS011;1936;47.074;15.336;2023-04-01T03:50:18;4.38;;;1.88;;
3841;SDS011;1936;47.074;15.336;2023-04-01T03:52:21;3.50;;;2.03;;
3841;SDS011;1936;47.074;15.336;2023-04-01T03:54:25;2.47;;;1.60;;
3841;SDS011;1936;47.074;15.336;2023-04-01T03:56:29;2.38;;;1.92;;
3841;SDS011;1936;47.074;15.336;2023-04-01T03:58:33;3.92;;;1.75;;
3841;SDS011;1936;47.074;15.336;2023-04-01T04:00:37;2.10;;;1.90;;
3841;SDS011;1936;47.074;15.336;2023-04-01T04:02:41;3.13;;;1.35;;
3841;SDS011;1936;47.074;15.336;2023-04-01T04:04:46;2.65;;;1.80;;
3841;SDS011;1936;47.074;15.336;2023-04-01T04:06:50;4.35;;;2.33;;
3841;SDS011;1936;47.074;15.336;2023-04-01T04:08:54;2.28;;;1.50;;
3841;SDS011;1936;47.074;15.336;2023-04-01T04:10:57;5.70;;;1.75;;
3841;SDS011;1936;47.074;15.336;2023-04-01T04:13:01;2.38;;;1.50;;
3841;SDS011;1936;47.074;15.336;2023-04-01T04:15:05;5.75;;;1.50;;
3841;SDS011;1936;47.074;15.336;2023-04-01T04:17:09;3.40;;;1.67;;
3841;SDS011;1936;47.074;15.336;2023-04-01T04:19:17;2.00;;;1.80;;
3841;SDS011;1936;47.074;15.336;2023-04-01T04:21:22;3.53;;;2.50;;
3841;SDS011;1936;47.074;15.336;2023-04-01T04:23:26;2.60;;;2.28;;
3841;SDS011;1936;47.074;15.336;2023-04-01T04:25:31;1.70;;;1.60;;
3841;SDS011;1936;47.074;15.336;2023-04-01T04:27:35;3.00;;;2.40;;
3841;SDS011;1936;47.074;15.336;2023-04-01T04:29:39;2.42;;;1.90;;
3841;SDS011;1936;47.074;15.336;2023-04-01T04:31:42;4.35;;;2.08;;
3841;SDS011;1936;47.074;15.336;2023-04-01T04:33:46;2.75;;;2.10;;
3841;SDS011;1936;47.074;15.336;2023-04-01T04:35:50;2.55;;;1.85;;
3841;SDS011;1936;47.074;15.336;2023-04-01T04:37:55;1.63;;;1.45;;
3841;SDS011;1936;47.074;15.336;2023-04-01T04:39:59;3.65;;;2.00;;
3841;SDS011;1936;47.074;15.336;2023-04-01T04:42:03;4.45;;;2.08;;
3841;SDS011;1936;47.074;15.336;2023-04-01T04:44:06;2.00;;;1.80;;
3841;SDS011;1936;47.074;15.336;2023-04-01T04:46:10;2.47;;;2.15;;
3841;SDS011;1936;47.074;15.336;2023-04-01T04:48:15;3.42;;;1.40;;
3841;SDS011;1936;47.074;15.336;2023-04-01T04:50:21;5.00;;;2.10;;
3841;SDS011;1936;47.074;15.336;2023-04-01T04:52:25;4.05;;;2.88;;
3841;SDS011;1936;47.074;15.336;2023-04-01T04:54:30;3.63;;;2.90;;
3841;SDS011;1936;47.074;15.336;2023-04-01T04:56:34;2.95;;;2.45;;
3841;SDS011;1936;47.074;15.336;2023-04-01T04:58:38;3.58;;;2.40;;
3841;SDS011;1936;47.074;15.336;2023-04-01T05:00:42;3.60;;;2.75;;
3841;SDS011;1936;47.074;15.336;2023-04-01T05:02:46;3.33;;;3.00;;
3841;SDS011;1936;47.074;15.336;2023-04-01T05:04:50;5.50;;;2.05;;
3841;SDS011;1936;47.074;15.336;2023-04-01T05:06:54;2.58;;;1.58;;
3841;SDS011;1936;47.074;15.336;2023-04-01T05:08:58;3.35;;;2.20;;
3841;SDS011;1936;47.074;15.336;2023-04-01T05:11:03;3.38;;;2.13;;
3841;SDS011;1936;47.074;15.336;2023-04-01T05:13:07;3.80;;;2.00;;
3841;SDS011;1936;47.074;15.336;2023-04-01T05:15:15;5.70;;;1.95;;
3841;SDS011;1936;47.074;15.336;2023-04-01T05:17:18;2.17;;;1.98;;
3841;SDS011;1936;47.074;15.336;2023-04-01T05:19:22;2.45;;;1.65;;
3841;SDS011;1936;47.074;15.336;2023-04-01T05:21:26;3.47;;;2.20;;
3841;SDS011;1936;47.074;15.336;2023-04-01T05:23:30;1.90;;;1.65;;
3841;SDS011;1936;47.074;15.336;2023-04-01T05:25:36;3.13;;;2.28;;
3841;SDS011;1936;47.074;15.336;2023-04-01T05:27:42;6.57;;;2.08;;
3841;SDS011;1936;47.074;15.336;2023-04-01T05:29:46;2.50;;;1.77;;
3841;SDS011;1936;47.074;15.336;2023-04-01T05:31:50;2.17;;;1.70;;
3841;SDS011;1936;47.074;15.336;2023-04-01T05:33:54;3.55;;;2.00;;
3841;SDS011;1936;47.074;15.336;2023-04-01T05:36:06;2.15;;;1.85;;
3841;SDS011;1936;47.074;15.336;2023-04-01T05:38:10;3.78;;;1.30;;
3841;SDS011;1936;47.074;15.336;2023-04-01T05:40:14;2.20;;;1.90;;
3841;SDS011;1936;47.074;15.336;2023-04-01T05:42:17;2.92;;;2.00;;
3841;SDS011;1936;47.074;15.336;2023-04-01T05:44:23;1.50;;;1.40;;
3841;SDS011;1936;47.074;15.336;2023-04-01T05:46:27;2.20;;;1.55;;
3841;SDS011;1936;47.074;15.336;2023-04-01T05:48:33;6.13;;;1.88;;
3841;SDS011;1936;47.074;15.336;2023-04-01T05:50:39;8.40;;;2.33;;
3841;SDS011;1936;47.074;15.336;2023-04-01T05:52:43;1.45;;;1.35;;
3841;SDS011;1936;47.074;15.336;2023-04-01T05:54:47;7.47;;;1.70;;
3841;SDS011;1936;47.074;15.336;2023-04-01T05:56:51;3.80;;;2.25;;
3841;SDS011;1936;47.074;15.336;2023-04-01T05:58:54;3.17;;;1.73;;
3841;SDS011;1936;47.074;15.336;2023-04-01T06:01:03;1.65;;;1.55;;
3841;SDS011;1936;47.074;15.336;2023-04-01T06:03:16;2.50;;;2.25;;
3841;SDS011;1936;47.074;15.336;2023-04-01T06:05:21;2.65;;;1.80;;
3841;SDS011;1936;47.074;15.336;2023-04-01T06:07:25;2.83;;;2.53;;
3841;SDS011;1936;47.074;15.336;2023-04-01T06:09:31;2.15;;;1.95;;
3841;SDS011;1936;47.074;15.336;2023-04-01T06:11:35;2.50;;;1.65;;
3841;SDS011;1936;47.074;15.336;2023-04-01T06:13:46;2.30;;;2.10;;
3841;SDS011;1936;47.074;15.336;2023-04-01T06:15:53;5.25;;;2.30;;
3841;SDS011;1936;47.074;15.336;2023-04-01T06:18:08;1.98;;;1.70;;
3841;SDS011;1936;47.074;15.336;2023-04-01T06:20:18;2.10;;;1.90;;
3841;SDS011;1936;47.074;15.336;2023-04-01T06:22:39;2.93;;;1.70;;
3841;SDS011;1936;47.074;15.336;2023-04-01T06:25:09;1.97;;;1.77;;
3841;SDS011;1936;47.074;15.336;2023-04-01T06:27:17;1.60;;;1.30;;
3841;SDS011;1936;47.074;15.336;2023-04-01T06:29:33;1.90;;;1.47;;
3841;SDS011;1936;47.074;15.336;2023-04-01T06:31:46;8.83;;;1.73;;
3841;SDS011;1936;47.074;15.336;2023-04-01T06:34:03;1.50;;;1.40;;
3841;SDS011;1936;47.074;15.336;2023-04-01T06:38:34;2.33;;;1.40;;
3841;SDS011;1936;47.074;15.336;2023-04-01T06:40:48;1.57;;;1.40;;
3841;SDS011;1936;47.074;15.336;2023-04-01T06:43:00;1.90;;;1.23;;
3841;SDS011;1936;47.074;15.336;2023-04-01T06:45:13;2.83;;;1.80;;
3841;SDS011;1936;47.074;15.336;2023-04-01T06:47:23;4.80;;;1.30;;
3841;SDS011;1936;47.074;15.336;2023-04-01T06:49:37;2.10;;;1.43;;
3841;SDS011;1936;47.074;15.336;2023-04-01T06:51:46;2.40;;;1.47;;
3841;SDS011;1936;47.074;15.336;2023-04-01T06:53:56;1.50;;;1.40;;
3841;SDS011;1936;47.074;15.336;2023-04-01T06:56:05;2.03;;;1.27;;
3841;SDS011;1936;47.074;15.336;2023-04-01T06:58:13;1.00;;;0.90;;
3841;SDS011;1936;47.074;15.336;2023-04-01T07:00:19;1.37;;;0.83;;
3841;SDS011;1936;47.074;15.336;2023-04-01T07:02:25;2.00;;;1.00;;
3841;SDS011;1936;47.074;15.336;2023-04-01T07:04:33;2.87;;;0.83;;
3841;SDS011;1936;47.074;15.336;2023-04-01T07:06:42;1.50;;;0.83;;
3841;SDS011;1936;47.074;15.336;2023-04-01T07:08:47;2.03;;;0.83;;
3841;SDS011;1936;47.074;15.336;2023-04-01T07:10:54;3.73;;;1.20;;
3841;SDS011;1936;47.074;15.336;2023-04-01T07:13:00;1.13;;;0.70;;
3841;SDS011;1936;47.074;15.336;2023-04-01T07:15:11;0.97;;;0.83;;
3841;SDS011;1936;47.074;15.336;2023-04-01T07:17:16;1.30;;;0.80;;
3841;SDS011;1936;47.074;15.336;2023-04-01T07:19:22;1.27;;;1.03;;
3841;SDS011;1936;47.074;15.336;2023-04-01T07:21:28;1.20;;;0.70;;
3841;SDS011;1936;47.074;15.336;2023-04-01T07:23:36;0.90;;;0.80;;
3841;SDS011;1936;47.074;15.336;2023-04-01T07:25:43;1.37;;;0.80;;
3841;SDS011;1936;47.074;15.336;2023-04-01T07:27:47;1.10;;;0.70;;
3841;SDS011;1936;47.074;15.336;2023-04-01T07:29:55;1.27;;;0.67;;
3841;SDS011;1936;47.074;15.336;2023-04-01T07:34:23;0.80;;;0.57;;
3841;SDS011;1936;47.074;15.336;2023-04-01T07:36:30;0.70;;;0.40;;
3841;SDS011;1936;47.074;15.336;2023-04-01T07:38:39;0.77;;;0.50;;
3841;SDS011;1936;47.074;15.336;2023-04-01T07:40:47;1.00;;;0.40;;
3841;SDS011;1936;47.074;15.336;2023-04-01T07:42:59;1.00;;;0.60;;
3841;SDS011;1936;47.074;15.336;2023-04-01T07:45:08;0.70;;;0.40;;
3841;SDS011;1936;47.074;15.336;2023-04-01T07:47:22;1.00;;;0.63;;
3841;SDS011;1936;47.074;15.336;2023-04-01T07:50:20;0.70;;;0.53;;
3841;SDS011;1936;47.074;15.336;2023-04-01T07:52:27;1.00;;;0.60;;
3841;SDS011;1936;47.074;15.336;2023-04-01T07:54:37;1.00;;;0.60;;
3841;SDS011;1936;47.074;15.336;2023-04-01T07:56:43;1.00;;;0.40;;
3841;SDS011;1936;47.074;15.336;2023-04-01T07:58:51;0.87;;;0.47;;
3841;SDS011;1936;47.074;15.336;2023-04-01T08:00:57;0.80;;;0.60;;
3841;SDS011;1936;47.074;15.336;2023-04-01T08:03:08;0.70;;;0.40;;
3841;SDS011;1936;47.074;15.336;2023-04-01T08:05:18;2.60;;;0.70;;
3841;SDS011;1936;47.074;15.336;2023-04-01T08:07:24;0.80;;;0.50;;
3841;SDS011;1936;47.074;15.336;2023-04-01T08:09:30;1.23;;;0.60;;
3841;SDS011;1936;47.074;15.336;2023-04-01T08:11:41;0.90;;;0.50;;
3841;SDS011;1936;47.074;15.336;2023-04-01T08:13:49;0.90;;;0.50;;
3841;SDS011;1936;47.074;15.336;2023-04-01T08:15:57;1.40;;;0.50;;
3841;SDS011;1936;47.074;15.336;2023-04-01T08:18:08;0.80;;;0.40;;
3841;SDS011;1936;47.074;15.336;2023-04-01T08:20:18;1.83;;;0.40;;
3841;SDS011;1936;47.074;15.336;2023-04-01T08:22:28;0.70;;;0.40;;
3841;SDS011;1936;47.074;15.336;2023-04-01T08:24:33;1.07;;;0.50;;
3841;SDS011;1936;47.074;15.336;2023-04-01T08:26:51;0.80;;;0.50;;
3841;SDS011;1936;47.074;15.336;2023-04-01T08:28:58;0.90;;;0.50;;
3841;SDS011;1936;47.074;15.336;2023-04-01T08:31:03;0.70;;;0.40;;
3841;SDS011;1936;47.074;15.336;2023-04-01T08:33:09;0.60;;;0.30;;
3841;SDS011;1936;47.074;15.336;2023-04-01T08:35:16;0.73;;;0.40;;
3841;SDS011;1936;47.074;15.336;2023-04-01T08:37:22;0.67;;;0.40;;
3841;SDS011;1936;47.074;15.336;2023-04-01T08:39:28;1.23;;;0.40;;
3841;SDS011;1936;47.074;15.336;2023-04-01T08:46:18;0.70;;;0.40;;
3841;SDS011;1936;47.074;15.336;2023-04-01T08:48:28;0.70;;;0.30;;
3841;SDS011;1936;47.074;15.336;2023-04-01T08:50:48;1.13;;;0.40;;
3841;SDS011;1936;47.074;15.336;2023-04-01T08:52:58;0.80;;;0.40;;
3841;SDS011;1936;47.074;15.336;2023-04-01T08:55:15;0.70;;;0.40;;
3841;SDS011;1936;47.074;15.336;2023-04-01T08:57:26;0.70;;;0.40;;
3841;SDS011;1936;47.074;15.336;2023-04-01T08:59:40;1.00;;;0.40;;
3841;SDS011;1936;47.074;15.336;2023-04-01T09:02:00;1.00;;;0.50;;
3841;SDS011;1936;47.074;15.336;2023-04-01T09:04:19;7.67;;;2.07;;
3841;SDS011;1936;47.074;15.336;2023-04-01T09:06:31;0.80;;;0.40;;
3841;SDS011;1936;47.074;15.336;2023-04-01T09:08:38;0.60;;;0.30;;
3841;SDS011;1936;47.074;15.336;2023-04-01T09:13:10;0.80;;;0.47;;
3841;SDS011;1936;47.074;15.336;2023-04-01T09:15:27;1.00;;;0.50;;
3841;SDS011;1936;47.074;15.336;2023-04-01T09:17:41;1.80;;;0.40;;
3841;SDS011;1936;47.074;15.336;2023-04-01T09:19:54;1.03;;;0.50;;
3841;SDS011;1936;47.074;15.336;2023-04-01T09:22:14;0.70;;;0.40;;
3841;SDS011;1936;47.074;15.336;2023-04-01T09:24:33;0.80;;;0.60;;
3841;SDS011;1936;47.074;15.336;2023-04-01T09:26:51;1.10;;;0.63;;
3841;SDS011;1936;47.074;15.336;2023-04-01T09:29:02;1.23;;;0.40;;
3841;SDS011;1936;47.074;15.336;2023-04-01T09:31:20;1.13;;;0.53;;
3841;SDS011;1936;47.074;15.336;2023-04-01T09:35:58;0.70;;;0.40;;
3841;SDS011;1936;47.074;15.336;2023-04-01T09:38:11;1.00;;;0.40;;
3841;SDS011;1936;47.074;15.336;2023-04-01T09:40:23;0.70;;;0.40;;
3841;SDS011;1936;47.074;15.336;2023-04-01T09:42:32;0.80;;;0.30;;
3841;SDS011;1936;47.074;15.336;2023-04-01T09:44:44;0.80;;;0.40;;
3841;SDS011;1936;47.074;15.336;2023-04-01T09:46:56;0.70;;;0.40;;
3841;SDS011;1936;47.074;15.336;2023-04-01T09:49:20;1.23;;;0.67;;
3841;SDS011;1936;47.074;15.336;2023-04-01T09:51:33;0.70;;;0.40;;
3841;SDS011;1936;47.074;15.336;2023-04-01T09:53:45;0.60;;;0.40;;
3841;SDS011;1936;47.074;15.336;2023-04-01T09:58:28;0.93;;;0.40;;
3841;SDS011;1936;47.074;15.336;2023-04-01T10:00:52;1.00;;;0.40;;
3841;SDS011;1936;47.074;15.336;2023-04-01T10:12:24;0.70;;;0.40;;
3841;SDS011;1936;47.074;15.336;2023-04-01T10:14:50;0.80;;;0.30;;
3841;SDS011;1936;47.074;15.336;2023-04-01T10:17:08;0.60;;;0.40;;
3841;SDS011;1936;47.074;15.336;2023-04-01T10:26:27;0.70;;;0.40;;
3841;SDS011;1936;47.074;15.336;2023-04-01T10:35:57;0.90;;;0.60;;
3841;SDS011;1936;47.074;15.336;2023-04-01T10:40:35;0.90;;;0.40;;
3841;SDS011;1936;47.074;15.336;2023-04-01T10:42:43;0.70;;;0.40;;
3841;SDS011;1936;47.074;15.336;2023-04-01T10:45:03;0.70;;;0.40;;
3841;SDS011;1936;47.074;15.336;2023-04-01T10:49:46;0.60;;;0.40;;
3841;SDS011;1936;47.074;15.336;2023-04-01T10:54:22;0.90;;;0.57;;
3841;SDS011;1936;47.074;15.336;2023-04-01T10:56:36;0.60;;;0.30;;
3841;SDS011;1936;47.074;15.336;2023-04-01T11:22:27;0.70;;;0.40;;
3841;SDS011;1936;47.074;15.336;2023-04-01T11:24:44;1.27;;;0.40;;
3841;SDS011;1936;47.074;15.336;2023-04-01T11:26:52;1.80;;;0.40;;
3841;SDS011;1936;47.074;15.336;2023-04-01T11:29:03;0.70;;;0.40;;
3841;SDS011;1936;47.074;15.336;2023-04-01T11:31:16;0.60;;;0.40;;
3841;SDS011;1936;47.074;15.336;2023-04-01T11:33:26;1.00;;;0.50;;
3841;SDS011;1936;47.074;15.336;2023-04-01T11:35:35;1.47;;;0.40;;
3841;SDS011;1936;47.074;15.336;2023-04-01T11:37:44;0.80;;;0.40;;
3841;SDS011;1936;47.074;15.336;2023-04-01T11:39:58;1.43;;;0.50;;
3841;SDS011;1936;47.074;15.336;2023-04-01T11:42:08;0.70;;;0.40;;
3841;SDS011;1936;47.074;15.336;2023-04-01T11:44:17;0.70;;;0.40;;
3841;SDS011;1936;47.074;15.336;2023-04-01T11:46:24;0.60;;;0.30;;
3841;SDS011;1936;47.074;15.336;2023-04-01T11:48:33;0.70;;;0.40;;
3841;SDS011;1936;47.074;15.336;2023-04-01T11:50:43;0.80;;;0.47;;
3841;SDS011;1936;47.074;15.336;2023-04-01T11:52:57;1.10;;;0.40;;
3841;SDS011;1936;47.074;15.336;2023-04-01T11:57:30;0.60;;;0.30;;
3841;SDS011;1936;47.074;15.336;2023-04-01T11:59:41;0.70;;;0.40;;
3841;SDS011;1936;47.074;15.336;2023-04-01T12:01:53;0.77;;;0.37;;
3841;SDS011;1936;47.074;15.336;2023-04-01T12:04:11;0.60;;;0.40;;
3841;SDS011;1936;47.074;15.336;2023-04-01T12:06:21;1.53;;;0.50;;
3841;SDS011;1936;47.074;15.336;2023-04-01T12:08:33;0.70;;;0.40;;
3841;SDS011;1936;47.074;15.336;2023-04-01T12:10:44;0.73;;;0.40;;
3841;SDS011;1936;47.074;15.336;2023-04-01T12:12:53;0.70;;;0.40;;
3841;SDS011;1936;47.074;15.336;2023-04-01T12:15:11;0.73;;;0.40;;
3841;SDS011;1936;47.074;15.336;2023-04-01T12:17:24;0.67;;;0.40;;
3841;SDS011;1936;47.074;15.336;2023-04-01T12:19:32;0.60;;;0.40;;
3841;SDS011;1936;47.074;15.336;2023-04-01T12:21:41;0.90;;;0.40;;
3841;SDS011;1936;47.074;15.336;2023-04-01T12:24:02;0.70;;;0.30;;
3841;SDS011;1936;47.074;15.336;2023-04-01T12:26:23;0.70;;;0.30;;
3841;SDS011;1936;47.074;15.336;2023-04-01T12:28:35;0.70;;;0.40;;
3841;SDS011;1936;47.074;15.336;2023-04-01T12:30:45;1.10;;;0.60;;
3841;SDS011;1936;47.074;15.336;2023-04-01T12:32:54;0.70;;;0.40;;
3841;SDS011;1936;47.074;15.336;2023-04-01T12:35:10;0.60;;;0.40;;
3841;SDS011;1936;47.074;15.336;2023-04-01T12:37:18;1.43;;;0.40;;
3841;SDS011;1936;47.074;15.336;2023-04-01T12:39:33;0.70;;;0.40;;
3841;SDS011;1936;47.074;15.336;2023-04-01T12:41:42;0.70;;;0.40;;
3841;SDS011;1936;47.074;15.336;2023-04-01T12:43:56;0.60;;;0.30;;
3841;SDS011;1936;47.074;15.336;2023-04-01T12:46:03;0.60;;;0.30;;
3841;SDS011;1936;47.074;15.336;2023-04-01T12:48:18;1.00;;;0.40;;
3841;SDS011;1936;47.074;15.336;2023-04-01T12:50:28;0.60;;;0.30;;
3841;SDS011;1936;47.074;15.336;2023-04-01T12:52:38;0.70;;;0.50;;
3841;SDS011;1936;47.074;15.336;2023-04-01T12:57:30;0.60;;;0.30;;
3841;SDS011;1936;47.074;15.336;2023-04-01T12:59:41;0.70;;;0.40;;
3841;SDS011;1936;47.074;15.336;2023-04-01T13:06:52;0.80;;;0.40;;
3841;SDS011;1936;47.074;15.336;2023-04-01T13:09:04;0.60;;;0.40;;
3841;SDS011;1936;47.074;15.336;2023-04-01T13:11:19;0.70;;;0.47;;
3841;SDS011;1936;47.074;15.336;2023-04-01T13:13:31;2.00;;;0.40;;
3841;SDS011;1936;47.074;15.336;2023-04-01T13:15:40;1.40;;;1.30;;
3841;SDS011;1936;47.074;15.336;2023-04-01T13:17:46;1.00;;;0.80;;
3841;SDS011;1936;47.074;15.336;2023-04-01T13:19:54;1.00;;;0.50;;
3841;SDS011;1936;47.074;15.336;2023-04-01T13:22:07;1.80;;;0.77;;
3841;SDS011;1936;47.074;15.336;2023-04-01T13:24:18;0.60;;;0.40;;
3841;SDS011;1936;47.074;15.336;2023-04-01T13:26:28;0.60;;;0.30;;
3841;SDS011;1936;47.074;15.336;2023-04-01T13:28:36;1.43;;;0.40;;
3841;SDS011;1936;47.074;15.336;2023-04-01T13:30:44;0.67;;;0.40;;
3841;SDS011;1936;47.074;15.336;2023-04-01T13:32:55;0.70;;;0.40;;
3841;SDS011;1936;47.074;15.336;2023-04-01T13:35:05;0.60;;;0.40;;
3841;SDS011;1936;47.074;15.336;2023-04-01T13:37:15;1.13;;;0.50;;
3841;SDS011;1936;47.074;15.336;2023-04-01T13:39:36;0.60;;;0.37;;
3841;SDS011;1936;47.074;15.336;2023-04-01T13:41:46;0.60;;;0.40;;
3841;SDS011;1936;47.074;15.336;2023-04-01T13:43:57;0.90;;;0.50;;
3841;SDS011;1936;47.074;15.336;2023-04-01T13:46:16;1.33;;;0.40;;
3841;SDS011;1936;47.074;15.336;2023-04-01T13:48:48;0.70;;;0.40;;
3841;SDS011;1936;47.074;15.336;2023-04-01T13:55:37;2.80;;;0.60;;
3841;SDS011;1936;47.074;15.336;2023-04-01T13:57:44;0.70;;;0.30;;
3841;SDS011;1936;47.074;15.336;2023-04-01T14:00:02;0.63;;;0.33;;
3841;SDS011;1936;47.074;15.336;2023-04-01T14:06:50;0.90;;;0.40;;
3841;SDS011;1936;47.074;15.336;2023-04-01T14:09:03;1.77;;;0.80;;
3841;SDS011;1936;47.074;15.336;2023-04-01T14:11:11;0.73;;;0.40;;
3841;SDS011;1936;47.074;15.336;2023-04-01T14:13:21;0.73;;;0.37;;
3841;SDS011;1936;47.074;15.336;2023-04-01T14:15:36;0.60;;;0.40;;
3841;SDS011;1936;47.074;15.336;2023-04-01T14:17:46;0.70;;;0.40;;
3841;SDS011;1936;47.074;15.336;2023-04-01T14:20:02;1.40;;;0.40;;
3841;SDS011;1936;47.074;15.336;2023-04-01T14:22:12;0.73;;;0.40;;
3841;SDS011;1936;47.074;15.336;2023-04-01T14:24:28;0.70;;;0.40;;
3841;SDS011;1936;47.074;15.336;2023-04-01T14:26:44;1.27;;;0.50;;
3841;SDS011;1936;47.074;15.336;2023-04-01T14:28:54;0.80;;;0.50;;
3841;SDS011;1936;47.074;15.336;2023-04-01T14:31:17;0.80;;;0.40;;
3841;SDS011;1936;47.074;15.336;2023-04-01T14:33:25;0.77;;;0.40;;
3841;SDS011;1936;47.074;15.336;2023-04-01T14:35:35;0.70;;;0.40;;
3841;SDS011;1936;47.074;15.336;2023-04-01T14:37:46;0.80;;;0.40;;
3841;SDS011;1936;47.074;15.336;2023-04-01T14:42:19;0.70;;;0.40;;